Historyczne dane pomiarowe

Dodano dane terminowe – wersja testowa.

Dane z okresu 1951-2019

Wersja bazy: 1.34 [2019-03-16, lista zmian], aktualizacja planowana na 2019-04-15

Dane meteo z obszaru Polski uzyskane na podstawie danych udostępnionych przez Instytut Meteorologii i Gospodarki Wodnej – Państwowy Instytut Badawczy.

 

Wybierz Datę:    

       

TemperaturaWilgotnośćWiatrCiśnienieOpadyŚniegCzas trwania zjawisk
 Stacja t tx tn tng RH VA  wxwx mslp ppp RRR   cm mm wxwxwxwxwxwxwx
1994-08-14 15.9 21.0 12.9- 68.0- 3.7 0.0---- 0.0------------
1994-08-13 17.6 23.9 13.1- 75.3- 6.0 0.7---- 1.9------------
1994-08-12 16.0 20.7 13.2- 90.5- 7.3 0.0---- 6.5------------
1994-08-11 18.0 25.5 14.0- 89.0- 6.3 0.0---- 3.8------------
1994-08-10 18.9 28.4 11.1- 75.8- 3.7 0.0---- 3.1------------
1994-08-09 18.6 25.1 15.4- 94.5- 7.0 0.0---- 22.9------------
1994-08-08 20.4 30.0 14.7- 83.3- 7.3 0.0---- 1.1------------
1994-08-07 21.2 29.6 14.4- 76.5- 7.3 0.0---- 0.0------------
1994-08-06 21.4 32.0 11.8- 67.5- 2.0 0.7---- 0.4------------
1994-08-05 21.3 31.1 13.9- 73.3- 2.3 0.0---- 0.0------------
1994-08-04 20.5 28.0 14.7- 81.8- 5.7 1.3---- 0.7------------
1994-08-03 20.3 30.0 14.1- 82.5- 7.3 0.7---- 12.9------------
1994-08-02 22.5 34.0 14.2- 68.3- 4.0 0.7---- 0.0------------
1994-08-01 23.4 34.7 13.9- 65.0- 4.0 0.0---- 0.0------------
1994-07-31 23.0 34.0 13.2- 66.3- 1.0 0.3---- 0.0------------
1994-07-30 22.6 34.6 11.9- 61.3- 0.7 0.7---- 0.0------------
1994-07-29 21.6 34.0 10.7- 62.3- 0.3 0.3---- 0.0------------
1994-07-28 21.5 32.5 12.2- 61.8- 1.3 0.7---- 0.0------------
1994-07-27 21.8 32.6 12.4- 65.5- 2.7 0.3---- 0.0------------
1994-07-26 21.9 32.8 12.7- 65.3- 1.0 0.3---- 0.0------------
1994-07-25 21.1 32.0 12.2- 66.5- 4.0 0.0---- 0.0------------
1994-07-24 20.2 30.1 10.8- 65.8- 1.0 0.7---- 0.0------------
1994-07-23 18.6 28.6 8.7- 65.8- 1.3 0.3---- 0.0------------
1994-07-22 18.2 27.8 8.4- 65.5- 0.3 0.7---- 0.0------------
1994-07-21 16.8 26.2 7.7- 69.5- 0.0 0.7---- 0.0------------
1994-07-20 17.4 23.0 10.8- 70.8- 3.0 0.7---- 0.0------------
1994-07-19 19.3 25.6 14.6- 75.5- 7.0 0.0---- 0.0------------
1994-07-18 20.2 26.7 17.3- 84.5- 7.7 0.0---- 0.4------------
1994-07-17 20.2 28.0 14.2- 79.3- 7.0 0.0---- 2.7------------
1994-07-16 20.4 30.5 12.7- 78.3- 4.0 0.0---- 3.9------------
1994-07-15 19.3 28.0 13.2- 76.8- 6.3 0.0---- 0.0------------
1994-07-14 18.3 28.5 11.4- 82.3- 6.3 0.0---- 4.8------------
1994-07-13 19.5 27.8 10.6- 72.5- 5.3 0.7---- 0.0------------
1994-07-12 19.0 25.5 14.0- 80.3- 4.7 0.7---- 0.0------------
1994-07-11 16.8 22.3 11.1- 85.0- 7.3 0.7---- 0.3------------
1994-07-10 14.6 19.0 11.7- 91.0- 7.7 0.7---- 1.6------------
1994-07-09 13.6 22.4 8.4- 83.5- 7.7 1.3---- 2.9------------
1994-07-08 17.8 23.0 14.4- 72.5- 5.3 0.7---- 0.0------------
1994-07-07 17.1 27.6 8.8- 77.0- 7.3 0.3---- 7.6------------
1994-07-06 19.3 25.2 13.7- 67.0- 2.0 0.7---- 0.0------------
1994-07-05 18.8 27.0 8.7- 73.3- 6.7 0.7---- 0.4------------
1994-07-04 18.4 28.4 8.7- 68.8- 1.3 0.7---- 0.0------------
1994-07-03 17.4 27.1 7.2- 68.5- 0.3 0.7---- 0.0------------
1994-07-02 16.6 24.4 8.2- 72.8- 0.0 0.7---- 0.0------------
1994-07-01 18.9 23.2 16.5- 73.5- 4.7 1.3---- 0.0------------
1994-06-30 21.3 28.5 11.2- 84.8- 5.3 0.7---- 13.3------------
1994-06-29 22.2 31.1 14.2- 77.8- 1.7 0.3---- 0.0------------
1994-06-28 22.1 30.4 16.8- 80.3- 5.3 0.0---- 0.0------------
1994-06-27 22.0 32.0 12.7- 72.8- 5.7 0.3---- 0.0------------
1994-06-26 18.3 28.0 6.8- 66.0- 0.3 0.7---- 0.0------------
1994-06-25 13.9 24.7 2.9- 66.3- 0.0 0.7---- 0.0------------
1994-06-24 13.8 21.2 4.7- 60.5- 1.0 0.7---- 0.0------------
1994-06-23 16.3 23.5 14.4- 72.8- 4.7 0.7---- 0.0------------
1994-06-22 17.6 27.5 6.7- 67.5- 3.3 0.3---- 0.6------------
1994-06-21 15.7 20.6 7.7- 67.5- 2.3 0.7---- 0.0------------
1994-06-20 16.0 21.7 8.7- 74.8- 3.3 1.3---- 0.0------------
1994-06-19 16.3 25.1 10.6- 76.8- 5.3 1.0---- 0.0------------
1994-06-18 11.5 19.4 4.7- 78.0- 5.7 0.0---- 7.9------------
1994-06-17 10.9 14.6 9.1- 81.8- 7.3 0.0---- 1.6------------
1994-06-16 12.4 19.5 5.7- 75.8- 6.0 0.7---- 2.1------------
327.1 ms

 

Źródłem pochodzenia danych jest Instytut Meteorologii i Gospodarki Wodnej – Państwowy Instytut Badawczy. Dane Instytutu Meteorologii i Gospodarki Wodnej – Państwowego Instytutu Badawczego zostały przetworzone.

Dane źródłowe można odnaleźć na stronie https://dane.imgw.pl